sensor_id;sensor_type;location;lat;lon;timestamp;P1;durP1;ratioP1;P2;durP2;ratioP2
7843;SDS011;3967;48.702;9.326;2024-01-06T00:02:08;6.93;;;3.80;;
7843;SDS011;3967;48.702;9.326;2024-01-06T00:04:35;6.07;;;3.67;;
7843;SDS011;3967;48.702;9.326;2024-01-06T00:07:02;7.20;;;3.50;;
7843;SDS011;3967;48.702;9.326;2024-01-06T00:09:29;6.20;;;3.13;;
7843;SDS011;3967;48.702;9.326;2024-01-06T00:11:55;5.43;;;2.63;;
7843;SDS011;3967;48.702;9.326;2024-01-06T00:14:22;3.73;;;2.40;;
7843;SDS011;3967;48.702;9.326;2024-01-06T00:16:49;3.77;;;1.90;;
7843;SDS011;3967;48.702;9.326;2024-01-06T00:19:16;2.93;;;1.90;;
7843;SDS011;3967;48.702;9.326;2024-01-06T00:21:44;5.27;;;2.10;;
7843;SDS011;3967;48.702;9.326;2024-01-06T00:24:11;2.37;;;1.60;;
7843;SDS011;3967;48.702;9.326;2024-01-06T00:26:38;3.40;;;1.73;;
7843;SDS011;3967;48.702;9.326;2024-01-06T00:29:05;4.73;;;2.00;;
7843;SDS011;3967;48.702;9.326;2024-01-06T00:31:32;2.50;;;1.83;;
7843;SDS011;3967;48.702;9.326;2024-01-06T00:33:59;3.50;;;1.67;;
7843;SDS011;3967;48.702;9.326;2024-01-06T00:36:25;3.73;;;1.93;;
7843;SDS011;3967;48.702;9.326;2024-01-06T00:38:52;2.70;;;1.63;;
7843;SDS011;3967;48.702;9.326;2024-01-06T00:41:19;2.93;;;1.40;;
7843;SDS011;3967;48.702;9.326;2024-01-06T00:43:46;2.47;;;1.30;;
7843;SDS011;3967;48.702;9.326;2024-01-06T00:46:13;5.70;;;1.60;;
7843;SDS011;3967;48.702;9.326;2024-01-06T00:48:39;6.97;;;1.90;;
7843;SDS011;3967;48.702;9.326;2024-01-06T00:51:06;3.13;;;1.47;;
7843;SDS011;3967;48.702;9.326;2024-01-06T00:53:34;1.97;;;1.27;;
7843;SDS011;3967;48.702;9.326;2024-01-06T00:56:00;4.87;;;1.80;;
7843;SDS011;3967;48.702;9.326;2024-01-06T00:58:27;2.53;;;2.00;;
7843;SDS011;3967;48.702;9.326;2024-01-06T01:00:54;2.57;;;1.30;;
7843;SDS011;3967;48.702;9.326;2024-01-06T01:03:21;4.97;;;1.10;;
7843;SDS011;3967;48.702;9.326;2024-01-06T01:05:48;5.20;;;2.20;;
7843;SDS011;3967;48.702;9.326;2024-01-06T01:08:15;3.83;;;1.60;;
7843;SDS011;3967;48.702;9.326;2024-01-06T01:10:42;3.10;;;1.50;;
7843;SDS011;3967;48.702;9.326;2024-01-06T01:13:09;4.70;;;1.60;;
7843;SDS011;3967;48.702;9.326;2024-01-06T01:15:36;1.97;;;1.83;;
7843;SDS011;3967;48.702;9.326;2024-01-06T01:18:03;4.07;;;2.00;;
7843;SDS011;3967;48.702;9.326;2024-01-06T01:20:30;7.33;;;2.20;;
7843;SDS011;3967;48.702;9.326;2024-01-06T01:22:57;4.30;;;2.37;;
7843;SDS011;3967;48.702;9.326;2024-01-06T01:25:23;6.37;;;2.60;;
7843;SDS011;3967;48.702;9.326;2024-01-06T01:27:50;3.23;;;1.90;;
7843;SDS011;3967;48.702;9.326;2024-01-06T01:30:17;6.70;;;1.77;;
7843;SDS011;3967;48.702;9.326;2024-01-06T01:32:44;3.37;;;1.60;;
7843;SDS011;3967;48.702;9.326;2024-01-06T01:35:11;5.83;;;1.60;;
7843;SDS011;3967;48.702;9.326;2024-01-06T01:37:38;3.77;;;1.27;;
7843;SDS011;3967;48.702;9.326;2024-01-06T01:40:05;2.17;;;1.00;;
7843;SDS011;3967;48.702;9.326;2024-01-06T01:42:32;2.40;;;1.10;;
7843;SDS011;3967;48.702;9.326;2024-01-06T01:45:00;2.40;;;1.10;;
7843;SDS011;3967;48.702;9.326;2024-01-06T01:47:26;2.27;;;1.23;;
7843;SDS011;3967;48.702;9.326;2024-01-06T01:49:54;2.47;;;1.37;;
7843;SDS011;3967;48.702;9.326;2024-01-06T01:52:22;3.07;;;1.17;;
7843;SDS011;3967;48.702;9.326;2024-01-06T01:54:50;2.03;;;1.30;;
7843;SDS011;3967;48.702;9.326;2024-01-06T01:57:19;3.50;;;1.17;;
7843;SDS011;3967;48.702;9.326;2024-01-06T01:59:47;1.50;;;1.40;;
7843;SDS011;3967;48.702;9.326;2024-01-06T02:02:14;2.23;;;1.13;;
7843;SDS011;3967;48.702;9.326;2024-01-06T02:04:41;3.80;;;1.20;;
7843;SDS011;3967;48.702;9.326;2024-01-06T02:07:08;2.60;;;1.40;;
7843;SDS011;3967;48.702;9.326;2024-01-06T02:09:35;3.43;;;1.50;;
7843;SDS011;3967;48.702;9.326;2024-01-06T02:12:02;1.97;;;1.20;;
7843;SDS011;3967;48.702;9.326;2024-01-06T02:14:29;3.30;;;1.17;;
7843;SDS011;3967;48.702;9.326;2024-01-06T02:16:56;3.50;;;1.50;;
7843;SDS011;3967;48.702;9.326;2024-01-06T02:19:22;2.60;;;1.60;;
7843;SDS011;3967;48.702;9.326;2024-01-06T02:21:53;3.53;;;1.30;;
7843;SDS011;3967;48.702;9.326;2024-01-06T02:24:20;2.83;;;1.23;;
7843;SDS011;3967;48.702;9.326;2024-01-06T02:26:47;2.97;;;1.50;;
7843;SDS011;3967;48.702;9.326;2024-01-06T02:29:14;3.93;;;1.83;;
7843;SDS011;3967;48.702;9.326;2024-01-06T02:31:41;4.37;;;1.57;;
7843;SDS011;3967;48.702;9.326;2024-01-06T02:34:08;2.73;;;1.43;;
7843;SDS011;3967;48.702;9.326;2024-01-06T02:36:34;2.90;;;1.70;;
7843;SDS011;3967;48.702;9.326;2024-01-06T02:39:01;3.70;;;1.60;;
7843;SDS011;3967;48.702;9.326;2024-01-06T02:41:28;3.13;;;1.70;;
7843;SDS011;3967;48.702;9.326;2024-01-06T02:43:55;5.83;;;1.87;;
7843;SDS011;3967;48.702;9.326;2024-01-06T02:46:22;2.37;;;1.70;;
7843;SDS011;3967;48.702;9.326;2024-01-06T02:48:49;2.17;;;1.40;;
7843;SDS011;3967;48.702;9.326;2024-01-06T02:51:16;3.10;;;1.93;;
7843;SDS011;3967;48.702;9.326;2024-01-06T02:53:43;3.83;;;1.53;;
7843;SDS011;3967;48.702;9.326;2024-01-06T02:56:10;3.80;;;1.67;;
7843;SDS011;3967;48.702;9.326;2024-01-06T02:58:38;1.83;;;1.67;;
7843;SDS011;3967;48.702;9.326;2024-01-06T03:01:05;2.40;;;1.83;;
7843;SDS011;3967;48.702;9.326;2024-01-06T03:03:32;2.27;;;1.40;;
7843;SDS011;3967;48.702;9.326;2024-01-06T03:05:59;3.17;;;1.87;;
7843;SDS011;3967;48.702;9.326;2024-01-06T03:08:26;3.37;;;1.60;;
7843;SDS011;3967;48.702;9.326;2024-01-06T03:10:53;1.83;;;1.43;;
7843;SDS011;3967;48.702;9.326;2024-01-06T03:13:20;3.93;;;1.90;;
7843;SDS011;3967;48.702;9.326;2024-01-06T03:15:47;4.77;;;1.90;;
7843;SDS011;3967;48.702;9.326;2024-01-06T03:18:13;2.03;;;1.70;;
7843;SDS011;3967;48.702;9.326;2024-01-06T03:20:41;4.13;;;1.90;;
7843;SDS011;3967;48.702;9.326;2024-01-06T03:23:07;2.70;;;1.97;;
7843;SDS011;3967;48.702;9.326;2024-01-06T03:25:34;3.00;;;1.87;;
7843;SDS011;3967;48.702;9.326;2024-01-06T03:28:01;3.70;;;1.83;;
7843;SDS011;3967;48.702;9.326;2024-01-06T03:30:28;2.47;;;1.97;;
7843;SDS011;3967;48.702;9.326;2024-01-06T03:32:55;6.07;;;2.67;;
7843;SDS011;3967;48.702;9.326;2024-01-06T03:35:21;2.20;;;1.93;;
7843;SDS011;3967;48.702;9.326;2024-01-06T03:37:48;3.63;;;1.83;;
7843;SDS011;3967;48.702;9.326;2024-01-06T03:40:15;1.90;;;1.53;;
7843;SDS011;3967;48.702;9.326;2024-01-06T03:42:42;4.70;;;2.67;;
7843;SDS011;3967;48.702;9.326;2024-01-06T03:45:09;2.37;;;2.17;;
7843;SDS011;3967;48.702;9.326;2024-01-06T03:47:36;3.17;;;1.73;;
7843;SDS011;3967;48.702;9.326;2024-01-06T03:50:03;2.37;;;1.67;;
7843;SDS011;3967;48.702;9.326;2024-01-06T03:52:30;2.43;;;1.63;;
7843;SDS011;3967;48.702;9.326;2024-01-06T03:54:56;4.43;;;1.80;;
7843;SDS011;3967;48.702;9.326;2024-01-06T03:57:23;5.93;;;2.10;;
7843;SDS011;3967;48.702;9.326;2024-01-06T03:59:50;3.90;;;1.70;;
7843;SDS011;3967;48.702;9.326;2024-01-06T04:02:17;3.57;;;1.67;;
7843;SDS011;3967;48.702;9.326;2024-01-06T04:04:43;3.10;;;1.80;;
7843;SDS011;3967;48.702;9.326;2024-01-06T04:07:10;2.13;;;1.57;;
7843;SDS011;3967;48.702;9.326;2024-01-06T04:09:37;4.47;;;2.00;;
7843;SDS011;3967;48.702;9.326;2024-01-06T04:12:04;3.70;;;1.70;;
7843;SDS011;3967;48.702;9.326;2024-01-06T04:14:31;5.70;;;2.27;;
7843;SDS011;3967;48.702;9.326;2024-01-06T04:16:58;3.40;;;2.03;;
7843;SDS011;3967;48.702;9.326;2024-01-06T04:19:25;5.17;;;1.97;;
7843;SDS011;3967;48.702;9.326;2024-01-06T04:21:51;4.30;;;2.30;;
7843;SDS011;3967;48.702;9.326;2024-01-06T04:24:18;3.33;;;1.70;;
7843;SDS011;3967;48.702;9.326;2024-01-06T04:26:45;3.87;;;2.00;;
7843;SDS011;3967;48.702;9.326;2024-01-06T04:29:12;5.00;;;2.00;;
7843;SDS011;3967;48.702;9.326;2024-01-06T04:31:40;4.83;;;2.00;;
7843;SDS011;3967;48.702;9.326;2024-01-06T04:34:07;1.97;;;1.60;;
7843;SDS011;3967;48.702;9.326;2024-01-06T04:36:34;7.17;;;2.00;;
7843;SDS011;3967;48.702;9.326;2024-01-06T04:39:01;2.50;;;1.67;;
7843;SDS011;3967;48.702;9.326;2024-01-06T04:41:28;3.30;;;2.30;;
7843;SDS011;3967;48.702;9.326;2024-01-06T04:43:55;6.47;;;2.20;;
7843;SDS011;3967;48.702;9.326;2024-01-06T04:46:21;2.30;;;1.60;;
7843;SDS011;3967;48.702;9.326;2024-01-06T04:48:48;2.00;;;1.70;;
7843;SDS011;3967;48.702;9.326;2024-01-06T04:51:15;4.47;;;2.73;;
7843;SDS011;3967;48.702;9.326;2024-01-06T04:53:42;2.67;;;1.63;;
7843;SDS011;3967;48.702;9.326;2024-01-06T04:56:09;3.17;;;1.90;;
7843;SDS011;3967;48.702;9.326;2024-01-06T04:58:36;2.87;;;1.67;;
7843;SDS011;3967;48.702;9.326;2024-01-06T05:01:03;4.00;;;1.90;;
7843;SDS011;3967;48.702;9.326;2024-01-06T05:03:30;3.90;;;2.07;;
7843;SDS011;3967;48.702;9.326;2024-01-06T05:05:57;4.47;;;2.10;;
7843;SDS011;3967;48.702;9.326;2024-01-06T05:08:24;6.03;;;2.43;;
7843;SDS011;3967;48.702;9.326;2024-01-06T05:10:52;3.73;;;1.70;;
7843;SDS011;3967;48.702;9.326;2024-01-06T05:13:20;3.93;;;1.80;;
7843;SDS011;3967;48.702;9.326;2024-01-06T05:15:46;3.83;;;2.37;;
7843;SDS011;3967;48.702;9.326;2024-01-06T05:18:13;4.37;;;2.50;;
7843;SDS011;3967;48.702;9.326;2024-01-06T05:20:40;3.80;;;2.10;;
7843;SDS011;3967;48.702;9.326;2024-01-06T05:23:07;3.80;;;2.40;;
7843;SDS011;3967;48.702;9.326;2024-01-06T05:25:34;5.73;;;2.47;;
7843;SDS011;3967;48.702;9.326;2024-01-06T05:28:01;5.53;;;2.03;;
7843;SDS011;3967;48.702;9.326;2024-01-06T05:30:27;5.50;;;2.20;;
7843;SDS011;3967;48.702;9.326;2024-01-06T05:32:54;6.07;;;1.90;;
7843;SDS011;3967;48.702;9.326;2024-01-06T05:35:21;4.87;;;1.90;;
7843;SDS011;3967;48.702;9.326;2024-01-06T05:37:49;4.50;;;2.40;;
7843;SDS011;3967;48.702;9.326;2024-01-06T05:40:16;2.77;;;2.00;;
7843;SDS011;3967;48.702;9.326;2024-01-06T05:42:42;4.10;;;1.63;;
7843;SDS011;3967;48.702;9.326;2024-01-06T05:45:12;1.83;;;1.60;;
7843;SDS011;3967;48.702;9.326;2024-01-06T05:47:39;4.37;;;2.17;;
7843;SDS011;3967;48.702;9.326;2024-01-06T05:50:07;4.73;;;2.00;;
7843;SDS011;3967;48.702;9.326;2024-01-06T05:52:36;3.67;;;1.90;;
7843;SDS011;3967;48.702;9.326;2024-01-06T05:55:03;5.10;;;2.10;;
7843;SDS011;3967;48.702;9.326;2024-01-06T05:57:31;2.93;;;2.00;;
7843;SDS011;3967;48.702;9.326;2024-01-06T05:59:58;4.27;;;2.40;;
7843;SDS011;3967;48.702;9.326;2024-01-06T06:02:25;4.27;;;2.33;;
7843;SDS011;3967;48.702;9.326;2024-01-06T06:04:52;4.53;;;2.30;;
7843;SDS011;3967;48.702;9.326;2024-01-06T06:07:19;5.53;;;2.40;;
7843;SDS011;3967;48.702;9.326;2024-01-06T06:09:46;4.33;;;2.10;;
7843;SDS011;3967;48.702;9.326;2024-01-06T06:12:14;3.40;;;2.10;;
7843;SDS011;3967;48.702;9.326;2024-01-06T06:14:41;5.33;;;1.90;;
7843;SDS011;3967;48.702;9.326;2024-01-06T06:17:08;2.33;;;1.90;;
7843;SDS011;3967;48.702;9.326;2024-01-06T06:19:34;2.30;;;1.67;;
7843;SDS011;3967;48.702;9.326;2024-01-06T06:22:01;3.43;;;2.23;;
7843;SDS011;3967;48.702;9.326;2024-01-06T06:24:28;3.57;;;2.00;;
7843;SDS011;3967;48.702;9.326;2024-01-06T06:26:55;2.53;;;1.73;;
7843;SDS011;3967;48.702;9.326;2024-01-06T06:29:22;5.77;;;1.70;;
7843;SDS011;3967;48.702;9.326;2024-01-06T06:31:48;2.60;;;1.43;;
7843;SDS011;3967;48.702;9.326;2024-01-06T06:34:15;3.43;;;1.93;;
7843;SDS011;3967;48.702;9.326;2024-01-06T06:36:43;2.53;;;1.57;;
7843;SDS011;3967;48.702;9.326;2024-01-06T06:39:10;2.77;;;1.87;;
7843;SDS011;3967;48.702;9.326;2024-01-06T06:41:36;4.83;;;2.00;;
7843;SDS011;3967;48.702;9.326;2024-01-06T06:44:03;2.77;;;2.10;;
7843;SDS011;3967;48.702;9.326;2024-01-06T06:46:30;4.07;;;2.27;;
7843;SDS011;3967;48.702;9.326;2024-01-06T06:48:57;5.60;;;1.80;;
7843;SDS011;3967;48.702;9.326;2024-01-06T06:51:24;4.50;;;2.07;;
7843;SDS011;3967;48.702;9.326;2024-01-06T06:53:53;2.70;;;1.80;;
7843;SDS011;3967;48.702;9.326;2024-01-06T06:56:20;3.70;;;1.80;;
7843;SDS011;3967;48.702;9.326;2024-01-06T06:58:47;5.33;;;1.73;;
7843;SDS011;3967;48.702;9.326;2024-01-06T07:01:14;3.07;;;2.17;;
7843;SDS011;3967;48.702;9.326;2024-01-06T07:03:42;3.23;;;2.10;;
7843;SDS011;3967;48.702;9.326;2024-01-06T07:06:11;2.70;;;2.07;;
7843;SDS011;3967;48.702;9.326;2024-01-06T07:08:39;3.00;;;1.93;;
7843;SDS011;3967;48.702;9.326;2024-01-06T07:11:05;3.50;;;2.13;;
7843;SDS011;3967;48.702;9.326;2024-01-06T07:13:32;2.90;;;1.53;;
7843;SDS011;3967;48.702;9.326;2024-01-06T07:15:59;3.57;;;2.20;;
7843;SDS011;3967;48.702;9.326;2024-01-06T07:18:43;6.37;;;2.20;;
7843;SDS011;3967;48.702;9.326;2024-01-06T07:21:11;4.53;;;2.10;;
7843;SDS011;3967;48.702;9.326;2024-01-06T07:23:39;3.33;;;1.70;;
7843;SDS011;3967;48.702;9.326;2024-01-06T07:26:05;2.40;;;1.70;;
7843;SDS011;3967;48.702;9.326;2024-01-06T07:28:34;2.87;;;1.80;;
7843;SDS011;3967;48.702;9.326;2024-01-06T07:31:01;4.60;;;2.17;;
7843;SDS011;3967;48.702;9.326;2024-01-06T07:33:28;4.73;;;2.07;;
7843;SDS011;3967;48.702;9.326;2024-01-06T07:35:55;6.73;;;2.20;;
7843;SDS011;3967;48.702;9.326;2024-01-06T07:38:21;4.23;;;1.70;;
7843;SDS011;3967;48.702;9.326;2024-01-06T07:40:48;4.17;;;2.17;;
7843;SDS011;3967;48.702;9.326;2024-01-06T07:43:15;2.40;;;1.63;;
7843;SDS011;3967;48.702;9.326;2024-01-06T07:45:41;6.40;;;1.70;;
7843;SDS011;3967;48.702;9.326;2024-01-06T07:48:08;4.70;;;2.17;;
7843;SDS011;3967;48.702;9.326;2024-01-06T07:50:35;3.70;;;1.70;;
7843;SDS011;3967;48.702;9.326;2024-01-06T07:53:02;3.03;;;1.90;;
7843;SDS011;3967;48.702;9.326;2024-01-06T07:55:29;3.50;;;1.90;;
7843;SDS011;3967;48.702;9.326;2024-01-06T07:57:56;2.43;;;1.40;;
7843;SDS011;3967;48.702;9.326;2024-01-06T08:00:22;3.93;;;1.60;;
7843;SDS011;3967;48.702;9.326;2024-01-06T08:02:49;3.50;;;1.97;;
7843;SDS011;3967;48.702;9.326;2024-01-06T08:05:16;6.03;;;1.90;;
7843;SDS011;3967;48.702;9.326;2024-01-06T08:07:43;2.77;;;1.50;;
7843;SDS011;3967;48.702;9.326;2024-01-06T08:10:09;3.70;;;1.77;;
7843;SDS011;3967;48.702;9.326;2024-01-06T08:12:36;3.77;;;1.63;;
7843;SDS011;3967;48.702;9.326;2024-01-06T08:15:03;2.93;;;1.47;;
7843;SDS011;3967;48.702;9.326;2024-01-06T08:17:31;2.83;;;1.73;;
7843;SDS011;3967;48.702;9.326;2024-01-06T08:19:57;2.30;;;1.50;;
7843;SDS011;3967;48.702;9.326;2024-01-06T08:22:24;5.33;;;1.97;;
7843;SDS011;3967;48.702;9.326;2024-01-06T08:24:51;5.20;;;1.87;;
7843;SDS011;3967;48.702;9.326;2024-01-06T08:27:18;2.67;;;1.40;;
7843;SDS011;3967;48.702;9.326;2024-01-06T08:29:45;1.77;;;1.57;;
7843;SDS011;3967;48.702;9.326;2024-01-06T08:32:12;3.90;;;1.60;;
7843;SDS011;3967;48.702;9.326;2024-01-06T08:34:41;2.97;;;1.40;;
7843;SDS011;3967;48.702;9.326;2024-01-06T08:37:07;3.33;;;1.17;;
7843;SDS011;3967;48.702;9.326;2024-01-06T08:39:34;1.83;;;1.50;;
7843;SDS011;3967;48.702;9.326;2024-01-06T08:42:01;2.73;;;1.33;;
7843;SDS011;3967;48.702;9.326;2024-01-06T08:44:28;4.67;;;1.83;;
7843;SDS011;3967;48.702;9.326;2024-01-06T08:46:55;3.63;;;1.47;;
7843;SDS011;3967;48.702;9.326;2024-01-06T08:49:22;6.20;;;1.97;;
7843;SDS011;3967;48.702;9.326;2024-01-06T08:51:49;2.03;;;1.63;;
7843;SDS011;3967;48.702;9.326;2024-01-06T08:54:16;1.80;;;1.63;;
7843;SDS011;3967;48.702;9.326;2024-01-06T08:56:43;4.93;;;1.90;;
7843;SDS011;3967;48.702;9.326;2024-01-06T08:59:10;3.87;;;1.57;;
7843;SDS011;3967;48.702;9.326;2024-01-06T09:01:36;3.00;;;1.70;;
7843;SDS011;3967;48.702;9.326;2024-01-06T09:04:05;3.57;;;1.70;;
7843;SDS011;3967;48.702;9.326;2024-01-06T09:06:33;1.80;;;1.70;;
7843;SDS011;3967;48.702;9.326;2024-01-06T09:09:00;2.90;;;2.70;;
7843;SDS011;3967;48.702;9.326;2024-01-06T09:11:27;3.57;;;2.17;;
7843;SDS011;3967;48.702;9.326;2024-01-06T09:13:53;5.90;;;2.90;;
7843;SDS011;3967;48.702;9.326;2024-01-06T09:16:20;2.73;;;2.47;;
7843;SDS011;3967;48.702;9.326;2024-01-06T09:18:47;4.23;;;2.00;;
7843;SDS011;3967;48.702;9.326;2024-01-06T09:21:15;6.30;;;2.40;;
7843;SDS011;3967;48.702;9.326;2024-01-06T09:23:43;5.07;;;2.63;;
7843;SDS011;3967;48.702;9.326;2024-01-06T09:26:10;3.70;;;2.60;;
7843;SDS011;3967;48.702;9.326;2024-01-06T09:28:37;5.00;;;2.83;;
7843;SDS011;3967;48.702;9.326;2024-01-06T09:31:04;4.40;;;3.37;;
7843;SDS011;3967;48.702;9.326;2024-01-06T09:33:31;5.53;;;2.97;;
7843;SDS011;3967;48.702;9.326;2024-01-06T09:36:00;5.50;;;3.30;;
7843;SDS011;3967;48.702;9.326;2024-01-06T09:38:28;7.27;;;3.30;;
7843;SDS011;3967;48.702;9.326;2024-01-06T09:40:55;6.83;;;3.10;;
7843;SDS011;3967;48.702;9.326;2024-01-06T09:43:22;7.73;;;3.10;;
7843;SDS011;3967;48.702;9.326;2024-01-06T09:45:53;5.93;;;2.80;;
7843;SDS011;3967;48.702;9.326;2024-01-06T09:48:27;5.33;;;2.80;;
7843;SDS011;3967;48.702;9.326;2024-01-06T09:50:56;4.63;;;3.13;;
7843;SDS011;3967;48.702;9.326;2024-01-06T09:53:28;4.97;;;3.30;;
7843;SDS011;3967;48.702;9.326;2024-01-06T09:56:03;5.70;;;2.47;;
7843;SDS011;3967;48.702;9.326;2024-01-06T09:58:31;4.93;;;2.50;;
7843;SDS011;3967;48.702;9.326;2024-01-06T10:01:00;4.13;;;2.10;;
7843;SDS011;3967;48.702;9.326;2024-01-06T10:03:28;2.77;;;2.20;;
7843;SDS011;3967;48.702;9.326;2024-01-06T10:05:55;3.37;;;2.00;;
7843;SDS011;3967;48.702;9.326;2024-01-06T10:08:26;2.10;;;1.60;;
7843;SDS011;3967;48.702;9.326;2024-01-06T10:10:53;2.43;;;1.60;;
7843;SDS011;3967;48.702;9.326;2024-01-06T10:13:20;3.30;;;1.60;;
7843;SDS011;3967;48.702;9.326;2024-01-06T10:15:47;2.73;;;1.50;;
7843;SDS011;3967;48.702;9.326;2024-01-06T10:18:14;1.67;;;1.50;;
7843;SDS011;3967;48.702;9.326;2024-01-06T10:20:41;4.03;;;1.97;;
7843;SDS011;3967;48.702;9.326;2024-01-06T10:23:10;1.97;;;1.73;;
7843;SDS011;3967;48.702;9.326;2024-01-06T10:25:37;1.40;;;1.30;;
7843;SDS011;3967;48.702;9.326;2024-01-06T10:28:05;1.20;;;1.10;;
7843;SDS011;3967;48.702;9.326;2024-01-06T10:30:32;2.60;;;1.87;;
7843;SDS011;3967;48.702;9.326;2024-01-06T10:32:59;2.33;;;2.00;;
7843;SDS011;3967;48.702;9.326;2024-01-06T10:35:28;1.63;;;1.37;;
7843;SDS011;3967;48.702;9.326;2024-01-06T10:37:56;2.20;;;1.60;;
7843;SDS011;3967;48.702;9.326;2024-01-06T10:40:24;2.67;;;1.87;;
7843;SDS011;3967;48.702;9.326;2024-01-06T10:42:51;1.30;;;1.20;;
7843;SDS011;3967;48.702;9.326;2024-01-06T10:45:18;1.43;;;0.97;;
7843;SDS011;3967;48.702;9.326;2024-01-06T10:47:45;1.00;;;1.00;;
7843;SDS011;3967;48.702;9.326;2024-01-06T10:50:13;2.10;;;1.17;;
7843;SDS011;3967;48.702;9.326;2024-01-06T10:52:43;1.53;;;1.40;;
7843;SDS011;3967;48.702;9.326;2024-01-06T10:55:11;1.57;;;1.27;;
7843;SDS011;3967;48.702;9.326;2024-01-06T10:57:38;1.70;;;1.20;;
7843;SDS011;3967;48.702;9.326;2024-01-06T11:00:05;1.50;;;1.07;;
7843;SDS011;3967;48.702;9.326;2024-01-06T11:02:32;1.00;;;1.00;;
7843;SDS011;3967;48.702;9.326;2024-01-06T11:05:00;1.43;;;0.80;;
7843;SDS011;3967;48.702;9.326;2024-01-06T11:07:27;1.17;;;1.07;;
7843;SDS011;3967;48.702;9.326;2024-01-06T11:09:57;1.90;;;1.10;;
7843;SDS011;3967;48.702;9.326;2024-01-06T11:12:29;1.30;;;1.20;;
7843;SDS011;3967;48.702;9.326;2024-01-06T11:14:57;1.33;;;1.07;;
7843;SDS011;3967;48.702;9.326;2024-01-06T11:20:15;1.27;;;1.17;;
7843;SDS011;3967;48.702;9.326;2024-01-06T11:22:42;3.30;;;1.20;;
7843;SDS011;3967;48.702;9.326;2024-01-06T11:25:13;0.90;;;0.90;;
7843;SDS011;3967;48.702;9.326;2024-01-06T11:27:41;0.90;;;0.90;;
7843;SDS011;3967;48.702;9.326;2024-01-06T11:30:26;2.60;;;1.17;;
7843;SDS011;3967;48.702;9.326;2024-01-06T11:32:56;1.27;;;1.20;;
7843;SDS011;3967;48.702;9.326;2024-01-06T11:35:26;1.27;;;1.07;;
7843;SDS011;3967;48.702;9.326;2024-01-06T11:37:54;2.23;;;1.00;;
7843;SDS011;3967;48.702;9.326;2024-01-06T11:45:33;2.43;;;1.50;;
7843;SDS011;3967;48.702;9.326;2024-01-06T11:48:01;1.93;;;1.07;;
7843;SDS011;3967;48.702;9.326;2024-01-06T11:50:37;1.10;;;1.00;;
7843;SDS011;3967;48.702;9.326;2024-01-06T11:53:05;2.17;;;1.10;;
7843;SDS011;3967;48.702;9.326;2024-01-06T11:55:33;1.50;;;1.33;;
7843;SDS011;3967;48.702;9.326;2024-01-06T11:58:04;1.63;;;1.10;;
7843;SDS011;3967;48.702;9.326;2024-01-06T12:00:32;2.40;;;1.57;;
7843;SDS011;3967;48.702;9.326;2024-01-06T12:03:00;1.83;;;1.70;;
7843;SDS011;3967;48.702;9.326;2024-01-06T12:05:28;2.80;;;1.30;;
7843;SDS011;3967;48.702;9.326;2024-01-06T12:07:55;1.80;;;1.60;;
7843;SDS011;3967;48.702;9.326;2024-01-06T12:10:27;2.37;;;1.40;;
7843;SDS011;3967;48.702;9.326;2024-01-06T12:12:58;1.50;;;1.40;;
7843;SDS011;3967;48.702;9.326;2024-01-06T12:15:26;1.50;;;1.40;;
7843;SDS011;3967;48.702;9.326;2024-01-06T12:17:53;2.87;;;1.67;;
7843;SDS011;3967;48.702;9.326;2024-01-06T12:20:21;2.27;;;1.60;;
7843;SDS011;3967;48.702;9.326;2024-01-06T12:22:52;2.17;;;1.60;;
7843;SDS011;3967;48.702;9.326;2024-01-06T12:25:20;1.90;;;1.70;;
7843;SDS011;3967;48.702;9.326;2024-01-06T12:27:48;3.00;;;1.77;;
7843;SDS011;3967;48.702;9.326;2024-01-06T12:30:16;1.80;;;1.70;;
7843;SDS011;3967;48.702;9.326;2024-01-06T12:32:45;3.17;;;1.90;;
7843;SDS011;3967;48.702;9.326;2024-01-06T12:35:15;2.43;;;1.90;;
7843;SDS011;3967;48.702;9.326;2024-01-06T12:37:43;1.60;;;1.50;;
7843;SDS011;3967;48.702;9.326;2024-01-06T12:40:11;2.03;;;1.60;;
7843;SDS011;3967;48.702;9.326;2024-01-06T12:42:39;2.47;;;2.20;;
7843;SDS011;3967;48.702;9.326;2024-01-06T12:45:06;2.10;;;2.00;;
7843;SDS011;3967;48.702;9.326;2024-01-06T12:47:34;1.90;;;1.80;;
7843;SDS011;3967;48.702;9.326;2024-01-06T12:50:01;2.60;;;2.40;;
7843;SDS011;3967;48.702;9.326;2024-01-06T12:52:28;2.23;;;2.03;;
7843;SDS011;3967;48.702;9.326;2024-01-06T12:54:55;2.40;;;2.20;;
7843;SDS011;3967;48.702;9.326;2024-01-06T12:57:21;3.30;;;3.00;;
7843;SDS011;3967;48.702;9.326;2024-01-06T12:59:48;4.13;;;2.63;;
7843;SDS011;3967;48.702;9.326;2024-01-06T13:02:15;2.53;;;2.33;;
7843;SDS011;3967;48.702;9.326;2024-01-06T13:04:42;2.53;;;2.30;;
7843;SDS011;3967;48.702;9.326;2024-01-06T13:07:09;2.10;;;2.00;;
7843;SDS011;3967;48.702;9.326;2024-01-06T13:09:36;2.60;;;2.40;;
7843;SDS011;3967;48.702;9.326;2024-01-06T13:12:03;2.13;;;1.93;;
7843;SDS011;3967;48.702;9.326;2024-01-06T13:14:31;2.60;;;2.40;;
7843;SDS011;3967;48.702;9.326;2024-01-06T13:16:58;2.50;;;2.30;;
7843;SDS011;3967;48.702;9.326;2024-01-06T13:19:25;2.67;;;2.47;;
7843;SDS011;3967;48.702;9.326;2024-01-06T13:21:52;4.53;;;3.10;;
7843;SDS011;3967;48.702;9.326;2024-01-06T13:24:19;3.77;;;3.00;;
7843;SDS011;3967;48.702;9.326;2024-01-06T13:26:46;3.03;;;2.73;;
7843;SDS011;3967;48.702;9.326;2024-01-06T13:29:13;2.80;;;2.60;;
7843;SDS011;3967;48.702;9.326;2024-01-06T13:31:39;3.17;;;2.90;;
7843;SDS011;3967;48.702;9.326;2024-01-06T13:34:07;2.87;;;2.57;;
7843;SDS011;3967;48.702;9.326;2024-01-06T13:36:34;2.63;;;2.33;;
7843;SDS011;3967;48.702;9.326;2024-01-06T13:39:00;3.20;;;3.00;;
7843;SDS011;3967;48.702;9.326;2024-01-06T13:41:27;3.00;;;2.80;;
7843;SDS011;3967;48.702;9.326;2024-01-06T13:43:54;2.77;;;2.57;;
7843;SDS011;3967;48.702;9.326;2024-01-06T13:46:21;2.87;;;2.60;;
7843;SDS011;3967;48.702;9.326;2024-01-06T13:48:47;3.17;;;2.90;;
7843;SDS011;3967;48.702;9.326;2024-01-06T13:51:15;2.80;;;2.60;;
7843;SDS011;3967;48.702;9.326;2024-01-06T13:53:42;3.83;;;3.30;;
7843;SDS011;3967;48.702;9.326;2024-01-06T13:56:08;3.30;;;3.10;;
7843;SDS011;3967;48.702;9.326;2024-01-06T13:58:35;4.37;;;3.40;;
7843;SDS011;3967;48.702;9.326;2024-01-06T14:01:02;3.17;;;2.97;;
7843;SDS011;3967;48.702;9.326;2024-01-06T14:03:29;5.17;;;3.40;;
7843;SDS011;3967;48.702;9.326;2024-01-06T14:05:56;3.57;;;3.20;;
7843;SDS011;3967;48.702;9.326;2024-01-06T14:08:23;3.30;;;3.10;;
7843;SDS011;3967;48.702;9.326;2024-01-06T14:10:50;3.93;;;3.53;;
7843;SDS011;3967;48.702;9.326;2024-01-06T14:13:17;4.23;;;3.83;;
7843;SDS011;3967;48.702;9.326;2024-01-06T14:15:44;4.47;;;4.07;;
7843;SDS011;3967;48.702;9.326;2024-01-06T14:18:10;3.77;;;3.47;;
7843;SDS011;3967;48.702;9.326;2024-01-06T14:20:40;3.93;;;3.63;;
7843;SDS011;3967;48.702;9.326;2024-01-06T14:23:07;4.73;;;4.33;;
7843;SDS011;3967;48.702;9.326;2024-01-06T14:25:36;4.20;;;3.87;;
7843;SDS011;3967;48.702;9.326;2024-01-06T14:28:03;4.97;;;4.43;;
7843;SDS011;3967;48.702;9.326;2024-01-06T14:30:32;4.90;;;4.47;;
7843;SDS011;3967;48.702;9.326;2024-01-06T14:32:59;5.20;;;4.70;;
7843;SDS011;3967;48.702;9.326;2024-01-06T14:35:26;5.33;;;4.83;;
7843;SDS011;3967;48.702;9.326;2024-01-06T14:37:53;4.73;;;4.33;;
7843;SDS011;3967;48.702;9.326;2024-01-06T14:40:20;7.07;;;5.13;;
7843;SDS011;3967;48.702;9.326;2024-01-06T14:42:47;5.90;;;5.30;;
7843;SDS011;3967;48.702;9.326;2024-01-06T14:45:14;5.20;;;4.80;;
7843;SDS011;3967;48.702;9.326;2024-01-06T14:47:42;6.00;;;4.83;;
7843;SDS011;3967;48.702;9.326;2024-01-06T14:50:09;5.47;;;4.97;;
7843;SDS011;3967;48.702;9.326;2024-01-06T14:52:35;8.63;;;6.20;;
7843;SDS011;3967;48.702;9.326;2024-01-06T14:55:02;6.47;;;5.33;;
7843;SDS011;3967;48.702;9.326;2024-01-06T14:57:29;7.27;;;5.87;;
7843;SDS011;3967;48.702;9.326;2024-01-06T14:59:56;7.30;;;6.57;;
7843;SDS011;3967;48.702;9.326;2024-01-06T15:02:23;7.67;;;6.57;;
7843;SDS011;3967;48.702;9.326;2024-01-06T15:04:50;7.23;;;6.17;;
7843;SDS011;3967;48.702;9.326;2024-01-06T15:07:16;8.37;;;7.53;;
7843;SDS011;3967;48.702;9.326;2024-01-06T15:09:43;5.97;;;5.47;;
7843;SDS011;3967;48.702;9.326;2024-01-06T15:12:10;7.87;;;6.97;;
7843;SDS011;3967;48.702;9.326;2024-01-06T15:14:37;9.83;;;7.07;;
7843;SDS011;3967;48.702;9.326;2024-01-06T15:17:04;7.97;;;6.60;;
7843;SDS011;3967;48.702;9.326;2024-01-06T15:19:31;7.60;;;6.80;;
7843;SDS011;3967;48.702;9.326;2024-01-06T15:21:59;7.93;;;6.63;;
7843;SDS011;3967;48.702;9.326;2024-01-06T15:24:26;8.37;;;6.93;;